Search for airport 
image banner adimage banner adimage banner ad
image banner ad

7IA5 - Mercy Medical Center - Clinton

Located in Clinton, United States

ICAO - 7IA5, IATA -

Data provided by Airmate  

General information

Coordinates: N41°51'39" W90°11'25"
Elevation is 708 feet MSL.
Magnetic variation is 01° East
View others Airports in Iowa

Operational data

Special qualification required
Current time UTC:
Current local time:
Weather at : KCWI - Clinton Muni ( 12 km )
METAR: KCWI 181756Z AUTO 02009KT 10SM CLR 29/21 A2981 RMK AO2 PRESFR SLP090 T02940211 10294 20239 58000
View NOTAMs / SUP AIP / TFR affecting this airport [VIEW]
Communications frequencies: [VIEW]

Runways:

Airport contact information

Address: Clinton United States

Satellite view of 7IA5